5M0 weather

Hartselle-Morgan County Regional Airport
Hartselle, Alabama, United States

Public forecast

Using degrees Fahrenheit for public forecast. Weather courtesy of forecast.io.

METAR (pilot weather report)

Closest report is Cullman Regional Airport-Folsom Field, 9.2 nm (17.0 km) SSE. Retrieved 2019/08/20 01:35 UTC (19 minutes ago):

KCMD 200135Z AUTO 00000KT 10SM CLR 25/21 A3010 RMK AO2 T02500212

TAF (pilot weather forecast)

Forecast is more than 12 hours old.

Closest forecast is Huntsville International Carl T Jones Field, 15.8 nm (29.3 km) NNE. Retrieved 2019/08/19 00:28 UTC (1 day ago):

TAF KHSV 192326Z 2000/2024 27009KT P6SM SCT050 BKN070 TEMPO 2000/2001 TSRA SCT050CB FM200100 00000KT P6SM FEW250 FM201000 00000KT 5SM BR SCT250 FM201300 VRB03KT P6SM FEW050 SCT250